Stevens Point, WI (54481)

9:07 AM CDT on September 02, 2015 (GMT -0500)
Forest Circle neighborhood | | Change Station
CLOSE
Current Station
Personal Weather Station
Location: Stevens Point, WI
Elevation: 1099 ft
Nearby Weather Stations

Elev 1099 ft 44.50 °N, 89.53 °W | Updated 12 seconds ago

Scattered Clouds
Scattered Clouds
77.2 °F
Feels Like 79 °F
N
0.9
Wind Variable Wind from WSW
Gusts 2.5 mph

Today
High -- | Low -- °F
--% Chance of Precip.
Yesterday
High -- | Low -- °F
Precip. -- in
6:21 AM 7:33 PM
Waning Gibbous, 80% visible
Pressure 30.01 in
Visibility 10.0 miles
Clouds Scattered Clouds 10000 ft
Heat Index 79 °F
Dew Point 74 °F
Humidity 91%
Rainfall 0.00 in
Snow Depth Not available.
UV 1.0 out of 12
Pollen 10.00 out of 12
Air Quality Not available.
Flu Activity Not available.
METAR KSTE 021355Z AUTO 21007KT 10SM SCT100 24/21 A3001 RMK AO2 T02350211
Pressure 30.01 in
Visibility 10.0 miles
Clouds Scattered Clouds 10000 ft
Heat Index 79 °F
Dew Point 74 °F
Humidity 91%
Rainfall 0.00 in
Snow Depth Not available.
UV 1.0 out of 12
Pollen 10.00 out of 12
Air Quality Not available.
Flu Activity Not available.
METAR KSTE 021355Z AUTO 21007KT 10SM SCT100 24/21 A3001 RMK AO2 T02350211

10-Day Weather Forecast

×

Almanac

Astronomy

Sep. 02, 2015 Rise Set
Actual Time
Civil Twilight
Nautical Twilight
Astronomical Twilight
Moon
Length of Visible Light
Length of Day
Tomorrow will be .
, % of the Moon is Illuminated

Today's Extremes

State Highs State Lows

Community

WunderPhotos

Upload Photos

1,851,759 photos uploaded!

WunderBlogs® & News

Nearby

Air Quality

  Air Quality AQ Index Pollutant
Not available.

Snow Depth

Station Depth Elevation

Earthquake Activity

City Distance Mag. Time & Date
Minimum magnitude displayed is 2.5.

Coastal Water Temperatures

Place Temperature

Stations

Nearby Weather Stations

Station Location Temp. Windchill Dew Point Humidity Wind Precip. Elev Updated Type